In Rescue
 
Open Full Screen Window  High Contrast Mode
Wind Gusting 19 knots
07
April 20, 2024 8:50 AM CDT
Weather Information
Wind Direction
  280 °
Wind Speed
  07 kt (8 mph)
Wind Gust
  19 kt (22 mph)
Altimeter
30.28 in
Visibility
10 SM
Temperature
00° C
32° F
Dewpoint
-04° C
25° F
Humidity
74%
Sky Condition
Overcast @ 2,900 ft
MVFR

METAR KFBL 201350Z AUTO 28007G19KT 10SM OVC029 00/M04 A3028 RMK AO2

FAA Disclaimer: The data displayed is for advisory purposes only and is not to be used for flight planning or operations.